Time;durP1;ratioP1;P1;durP2;ratioP2;P2;SDS_P1;SDS_P2;PMS_P1;PMS_P2;Temp;Humidity;BMP_temperature;BMP_pressure;BME280_temperature;BME280_humidity;BME280_pressure;Samples;Min_cycle;Max_cycle;Signal;HPM_P1;HPM_P2
2023/05/14 00:01:16;;;;;;;9.70;5.15;;;13.20;99.90;;;;;;5087137;28;20059;-60
2023/05/14 00:03:42;;;;;;;13.30;6.30;;;13.30;99.90;;;;;;5084715;28;20390;-59
2023/05/14 00:06:09;;;;;;;10.50;5.80;;;13.30;99.90;;;;;;5088069;28;20102;-58
2023/05/14 00:08:35;;;;;;;10.10;5.97;;;13.20;99.90;;;;;;5088473;28;20040;-57
2023/05/14 00:11:00;;;;;;;11.15;5.60;;;13.20;99.90;;;;;;5091610;28;20089;-59
2023/05/14 00:13:26;;;;;;;9.48;5.57;;;13.20;99.90;;;;;;5092945;28;20526;-59
2023/05/14 00:15:52;;;;;;;13.25;6.68;;;13.20;99.90;;;;;;5086280;28;20544;-60
2023/05/14 00:18:17;;;;;;;10.82;5.53;;;13.20;99.90;;;;;;5089903;28;20075;-59
2023/05/14 00:20:43;;;;;;;10.07;5.43;;;13.20;99.90;;;;;;5093279;28;20072;-59
2023/05/14 00:23:08;;;;;;;9.27;5.20;;;13.10;99.90;;;;;;5085320;28;20383;-59
2023/05/14 00:25:34;;;;;;;9.50;5.55;;;13.10;99.90;;;;;;5083846;28;20032;-59
2023/05/14 00:28:00;;;;;;;9.80;5.90;;;13.10;99.90;;;;;;5093135;28;20040;-59
2023/05/14 00:30:26;;;;;;;9.93;6.05;;;13.00;99.90;;;;;;5092102;28;20149;-59
2023/05/14 00:32:51;;;;;;;9.02;5.53;;;13.00;99.90;;;;;;5092621;28;20043;-59
2023/05/14 00:35:17;;;;;;;10.30;5.88;;;13.00;99.90;;;;;;5092975;28;20064;-58
2023/05/14 00:37:43;;;;;;;19.30;6.28;;;13.00;99.90;;;;;;5092511;28;20545;-58
2023/05/14 00:40:11;;;;;;;9.75;5.95;;;13.00;99.90;;;;;;5092729;28;20040;-58
2023/05/14 00:42:38;;;;;;;13.18;6.90;;;12.80;99.90;;;;;;5092643;28;20043;-58
2023/05/14 00:45:05;;;;;;;12.18;6.03;;;12.90;99.90;;;;;;5092024;28;20067;-58
2023/05/14 00:47:32;;;;;;;12.75;6.25;;;12.80;99.90;;;;;;5092588;28;20039;-58
2023/05/14 00:49:57;;;;;;;11.68;5.75;;;12.90;99.90;;;;;;5092208;28;20115;-58
2023/05/14 00:52:23;;;;;;;9.40;5.72;;;12.90;99.90;;;;;;5090345;28;20099;-58
2023/05/14 00:54:49;;;;;;;13.30;6.63;;;12.90;99.90;;;;;;5073319;28;20040;-58
2023/05/14 00:57:15;;;;;;;9.80;6.13;;;12.90;99.90;;;;;;5075549;28;20451;-58
2023/05/14 00:59:41;;;;;;;10.63;6.35;;;12.80;99.90;;;;;;5079611;28;20395;-58
2023/05/14 01:02:07;;;;;;;11.70;5.70;;;12.90;99.90;;;;;;5085839;28;20043;-58
2023/05/14 01:04:34;;;;;;;13.00;5.20;;;12.80;99.90;;;;;;5084180;28;20036;-58
2023/05/14 01:07:22;;;;;;;10.52;5.55;;;12.80;99.90;;;;;;5091910;28;20036;-58
2023/05/14 01:10:14;;;;;;;8.23;5.40;;;12.80;99.90;;;;;;5092276;28;20095;-58
2023/05/14 01:12:51;;;;;;;10.18;5.60;;;12.80;99.90;;;;;;5080958;28;20115;-58
2023/05/14 01:15:28;;;;;;;9.40;5.25;;;12.80;99.90;;;;;;5091772;28;20040;-58
2023/05/14 01:18:00;;;;;;;9.85;4.80;;;12.80;99.90;;;;;;5092248;28;20109;-58
2023/05/14 01:20:26;;;;;;;14.50;5.82;;;12.70;99.90;;;;;;5091913;28;20058;-58
2023/05/14 01:22:51;;;;;;;10.75;5.18;;;12.70;99.90;;;;;;5091999;28;20107;-58
2023/05/14 01:25:17;;;;;;;7.80;5.15;;;12.70;99.90;;;;;;5091747;28;20101;-59
2023/05/14 01:27:56;;;;;;;11.10;6.15;;;12.60;99.90;;;;;;5085715;28;20043;-59
2023/05/14 01:30:27;;;;;;;10.57;5.77;;;12.60;99.90;;;;;;5092773;28;20074;-59
2023/05/14 01:32:56;;;;;;;10.95;5.65;;;12.60;99.90;;;;;;5098895;28;20525;-59
2023/05/14 01:35:25;;;;;;;10.15;5.22;;;12.60;99.90;;;;;;5098773;28;20032;-59
2023/05/14 01:37:54;;;;;;;12.40;6.13;;;12.70;99.90;;;;;;5098661;28;20494;-59
2023/05/14 01:40:20;;;;;;;9.30;5.45;;;12.60;99.90;;;;;;5098856;28;20089;-58
2023/05/14 01:42:46;;;;;;;13.07;5.53;;;12.60;99.90;;;;;;5098319;28;20031;-58
2023/05/14 01:45:12;;;;;;;11.18;5.68;;;12.70;99.90;;;;;;5098166;28;20069;-58
2023/05/14 01:47:38;;;;;;;8.18;5.18;;;12.70;99.90;;;;;;5098730;28;20541;-59
2023/05/14 01:50:04;;;;;;;12.45;5.45;;;12.70;99.90;;;;;;5098795;28;20112;-59
2023/05/14 01:52:29;;;;;;;11.95;5.80;;;12.70;99.90;;;;;;5098759;28;20072;-59
2023/05/14 01:54:57;;;;;;;9.13;5.18;;;12.60;99.90;;;;;;5098444;28;20100;-59
2023/05/14 01:57:22;;;;;;;7.30;5.53;;;12.60;99.90;;;;;;5098517;28;20161;-59
2023/05/14 01:59:48;;;;;;;11.63;6.43;;;12.50;99.90;;;;;;5098648;28;20123;-59
2023/05/14 02:02:14;;;;;;;9.85;5.03;;;12.50;99.90;;;;;;5089515;28;20463;-59
2023/05/14 02:04:39;;;;;;;9.43;5.65;;;12.50;99.90;;;;;;5093692;28;20043;-59
2023/05/14 02:07:05;;;;;;;12.70;5.80;;;12.50;99.90;;;;;;5098824;28;20036;-59
2023/05/14 02:09:30;;;;;;;8.70;6.20;;;12.50;99.90;;;;;;5098855;28;20074;-59
2023/05/14 02:11:56;;;;;;;13.60;6.70;;;12.50;99.90;;;;;;5098825;28;20032;-59
2023/05/14 02:14:22;;;;;;;14.98;7.85;;;12.50;99.90;;;;;;5098951;28;20123;-59
2023/05/14 02:16:47;;;;;;;16.77;8.68;;;12.50;99.90;;;;;;5098057;28;20156;-58
2023/05/14 02:19:13;;;;;;;15.00;8.40;;;12.40;99.90;;;;;;5098116;28;20028;-58
2023/05/14 02:21:39;;;;;;;18.05;8.55;;;12.40;99.90;;;;;;5097932;28;20433;-58
2023/05/14 02:24:04;;;;;;;15.65;8.48;;;12.40;99.90;;;;;;5098127;28;20035;-58
2023/05/14 02:26:30;;;;;;;15.70;7.78;;;12.40;99.90;;;;;;5098449;28;20094;-58
2023/05/14 02:28:55;;;;;;;17.30;8.60;;;12.40;99.90;;;;;;5098079;28;20064;-58
2023/05/14 02:31:21;;;;;;;14.25;7.40;;;12.40;99.90;;;;;;5097983;28;20382;-58
2023/05/14 02:33:47;;;;;;;14.48;7.28;;;12.40;99.90;;;;;;5098023;28;20039;-58
2023/05/14 02:36:12;;;;;;;19.17;8.93;;;12.40;99.90;;;;;;5097976;28;20430;-57
2023/05/14 02:38:38;;;;;;;21.85;9.02;;;12.30;99.90;;;;;;5097847;28;20115;-58
2023/05/14 02:41:04;;;;;;;15.70;8.07;;;12.40;99.90;;;;;;5094816;28;20101;-58
2023/05/14 02:43:29;;;;;;;18.13;7.47;;;12.40;99.90;;;;;;5094883;28;20534;-58
2023/05/14 02:45:55;;;;;;;15.25;7.93;;;12.30;99.90;;;;;;5094276;28;20093;-58
2023/05/14 02:48:20;;;;;;;17.63;8.40;;;12.40;99.90;;;;;;5095036;28;20368;-58
2023/05/14 02:50:47;;;;;;;17.98;8.48;;;12.40;99.90;;;;;;5094600;28;20398;-58
2023/05/14 02:53:12;;;;;;;21.33;8.60;;;12.40;99.90;;;;;;5093673;28;20040;-58
2023/05/14 02:55:38;;;;;;;20.35;8.38;;;12.40;99.90;;;;;;5093150;28;20462;-58
2023/05/14 02:58:04;;;;;;;19.75;8.35;;;12.30;99.90;;;;;;5094848;28;20043;-58
2023/05/14 03:00:29;;;;;;;18.83;7.85;;;12.30;99.90;;;;;;5094306;28;20489;-58
2023/05/14 03:02:55;;;;;;;16.17;9.52;;;12.30;99.90;;;;;;5080174;28;20051;-58
2023/05/14 03:05:20;;;;;;;23.05;9.23;;;12.30;99.90;;;;;;5094251;28;20040;-58
2023/05/14 03:07:46;;;;;;;17.38;8.90;;;12.20;99.90;;;;;;5094286;28;20036;-58
2023/05/14 03:10:12;;;;;;;17.08;9.82;;;12.30;99.90;;;;;;5094096;28;20581;-58
2023/05/14 03:12:37;;;;;;;23.52;10.07;;;12.30;99.90;;;;;;5094302;28;20044;-58
2023/05/14 03:15:03;;;;;;;14.13;8.77;;;12.30;99.90;;;;;;5093993;28;20071;-58
2023/05/14 03:17:29;;;;;;;19.02;9.32;;;12.20;99.90;;;;;;5094218;28;20123;-58
2023/05/14 03:19:54;;;;;;;17.38;8.93;;;12.20;99.90;;;;;;5093888;28;20047;-58
2023/05/14 03:22:20;;;;;;;15.80;9.55;;;12.10;99.90;;;;;;5094071;28;20032;-58
2023/05/14 03:24:46;;;;;;;18.45;9.63;;;12.10;99.90;;;;;;5094007;28;20490;-58
2023/05/14 03:27:11;;;;;;;17.02;9.77;;;12.00;99.90;;;;;;5094184;28;20135;-58
2023/05/14 03:29:37;;;;;;;18.38;10.45;;;12.10;99.90;;;;;;5094155;28;20039;-58
2023/05/14 03:32:03;;;;;;;21.98;10.43;;;12.10;99.90;;;;;;5093950;28;20044;-58
2023/05/14 03:34:29;;;;;;;23.25;8.73;;;12.10;99.90;;;;;;5092695;28;20121;-58
2023/05/14 03:36:54;;;;;;;14.60;9.68;;;12.10;99.90;;;;;;5093955;28;20042;-58
2023/05/14 03:39:20;;;;;;;14.73;9.38;;;12.10;99.90;;;;;;5094029;28;20036;-58
2023/05/14 03:41:46;;;;;;;19.48;10.25;;;12.10;99.90;;;;;;5093665;28;20089;-58
2023/05/14 03:44:12;;;;;;;19.15;11.15;;;12.10;99.90;;;;;;5093315;28;20067;-58
2023/05/14 03:46:38;;;;;;;19.98;10.43;;;12.10;99.90;;;;;;5093654;28;20048;-58
2023/05/14 03:49:05;;;;;;;18.00;11.75;;;12.10;99.90;;;;;;5093549;28;20044;-58
2023/05/14 03:51:31;;;;;;;21.67;12.35;;;12.10;99.90;;;;;;5093230;28;20085;-58
2023/05/14 03:53:57;;;;;;;21.65;12.95;;;12.20;99.90;;;;;;5093083;28;20040;-58
2023/05/14 03:56:23;;;;;;;22.70;12.20;;;12.20;99.90;;;;;;5093540;28;20115;-58
2023/05/14 03:58:49;;;;;;;24.33;11.93;;;12.10;99.90;;;;;;5093332;28;20044;-58
2023/05/14 04:01:15;;;;;;;18.20;10.95;;;12.10;99.90;;;;;;5091801;28;20036;-58
2023/05/14 04:03:40;;;;;;;23.00;11.65;;;12.10;99.90;;;;;;5079197;28;20052;-58
2023/05/14 04:06:06;;;;;;;22.17;11.15;;;12.20;99.90;;;;;;5092947;28;20119;-58
2023/05/14 04:08:32;;;;;;;23.95;10.93;;;12.10;99.90;;;;;;5093025;28;20047;-58
2023/05/14 04:10:57;;;;;;;18.42;9.48;;;12.10;99.90;;;;;;5092048;28;20048;-58
2023/05/14 04:13:23;;;;;;;20.95;11.05;;;12.10;99.90;;;;;;5092833;28;20067;-58
2023/05/14 04:15:48;;;;;;;19.13;9.70;;;12.00;99.90;;;;;;5092935;28;20048;-58
2023/05/14 04:18:14;;;;;;;21.63;8.65;;;12.10;99.90;;;;;;5092995;28;20394;-58
2023/05/14 04:20:40;;;;;;;14.68;8.38;;;12.10;99.90;;;;;;5091459;28;20398;-58
2023/05/14 04:23:06;;;;;;;16.45;8.18;;;12.20;99.90;;;;;;5092727;28;20032;-58
2023/05/14 04:25:31;;;;;;;15.57;9.43;;;12.20;99.90;;;;;;5092796;28;20024;-58
2023/05/14 04:27:57;;;;;;;16.08;8.20;;;12.20;99.90;;;;;;5092601;28;20474;-58
2023/05/14 04:30:23;;;;;;;19.20;7.47;;;12.20;99.90;;;;;;5091451;28;20044;-58
2023/05/14 04:32:48;;;;;;;18.50;8.23;;;12.10;99.90;;;;;;5092608;28;20111;-58
2023/05/14 04:35:14;;;;;;;16.13;7.90;;;12.20;99.90;;;;;;5092487;28;20386;-58
2023/05/14 04:37:40;;;;;;;17.45;7.38;;;12.20;99.90;;;;;;5091542;28;20044;-58
2023/05/14 04:40:07;;;;;;;19.42;8.05;;;12.20;99.90;;;;;;5092308;28;20043;-58
2023/05/14 04:42:33;;;;;;;18.60;7.40;;;12.30;99.90;;;;;;5092513;28;20123;-58
2023/05/14 04:44:58;;;;;;;19.45;7.15;;;12.40;99.90;;;;;;5092110;28;20169;-58
2023/05/14 04:47:25;;;;;;;17.10;7.63;;;12.40;99.90;;;;;;5092475;28;20097;-58
2023/05/14 04:49:50;;;;;;;16.25;7.15;;;12.50;99.90;;;;;;5092186;28;20036;-58
2023/05/14 04:52:16;;;;;;;14.93;7.10;;;12.50;99.90;;;;;;5091508;28;20039;-58
2023/05/14 04:54:42;;;;;;;13.93;6.97;;;12.50;99.90;;;;;;5092780;28;20154;-58
2023/05/14 04:57:07;;;;;;;23.38;8.40;;;12.50;99.90;;;;;;5092282;28;20402;-58
2023/05/14 04:59:33;;;;;;;16.95;6.80;;;12.70;99.90;;;;;;5092330;28;20035;-58
2023/05/14 05:01:59;;;;;;;17.30;7.00;;;12.60;99.90;;;;;;5084853;28;20517;-58
2023/05/14 05:04:25;;;;;;;20.33;7.80;;;12.70;99.90;;;;;;5084980;28;20393;-58
2023/05/14 05:06:50;;;;;;;14.70;7.45;;;12.70;99.90;;;;;;5092008;28;20032;-58
2023/05/14 05:09:17;;;;;;;18.63;7.57;;;12.80;99.90;;;;;;5092281;28;20036;-58
2023/05/14 05:11:43;;;;;;;26.23;7.45;;;12.70;99.90;;;;;;5090856;28;20123;-58
2023/05/14 05:14:08;;;;;;;18.27;7.50;;;12.80;99.90;;;;;;5091794;28;20115;-58
2023/05/14 05:16:34;;;;;;;25.90;7.95;;;12.80;99.90;;;;;;5092018;28;20046;-58
2023/05/14 05:19:00;;;;;;;18.65;8.18;;;12.80;99.90;;;;;;5091237;28;20089;-58
2023/05/14 05:21:26;;;;;;;15.77;7.15;;;12.80;99.90;;;;;;5089664;28;20104;-58
2023/05/14 05:23:52;;;;;;;17.27;8.23;;;12.80;99.90;;;;;;5092177;28;20039;-59
2023/05/14 05:26:17;;;;;;;18.65;7.68;;;13.00;99.90;;;;;;5090411;28;20082;-59
2023/05/14 05:28:43;;;;;;;22.45;8.55;;;13.10;99.90;;;;;;5091751;28;20107;-59
2023/05/14 05:31:08;;;;;;;18.02;8.30;;;13.10;99.90;;;;;;5091755;28;20370;-59
2023/05/14 05:33:34;;;;;;;18.88;8.30;;;13.10;99.90;;;;;;5091895;28;20036;-58
2023/05/14 05:36:00;;;;;;;16.35;7.60;;;13.20;99.90;;;;;;5091978;28;20094;-58
2023/05/14 05:38:26;;;;;;;20.23;9.65;;;13.30;99.90;;;;;;5092102;28;20071;-58
2023/05/14 05:40:51;;;;;;;17.38;7.63;;;13.30;99.90;;;;;;5091824;28;20515;-58
2023/05/14 05:43:17;;;;;;;21.83;9.63;;;13.40;99.90;;;;;;5091722;28;20110;-59
2023/05/14 05:45:44;;;;;;;21.30;8.77;;;13.50;99.90;;;;;;5091564;28;20477;-58
2023/05/14 05:48:10;;;;;;;21.95;9.65;;;13.60;99.90;;;;;;5090413;28;20113;-59
2023/05/14 05:50:36;;;;;;;23.05;8.20;;;13.70;99.90;;;;;;5086725;28;20417;-58
2023/05/14 05:53:02;;;;;;;20.25;9.30;;;13.70;99.90;;;;;;5071375;28;20041;-58
2023/05/14 05:55:28;;;;;;;24.92;9.20;;;13.80;99.90;;;;;;5071417;28;20112;-58
2023/05/14 05:57:55;;;;;;;20.85;7.57;;;13.90;99.90;;;;;;5070280;28;20106;-59
2023/05/14 06:00:20;;;;;;;18.17;6.57;;;14.00;99.90;;;;;;5071298;28;20039;-58
2023/05/14 06:02:46;;;;;;;17.15;6.75;;;14.10;99.90;;;;;;5071310;28;20383;-59
2023/05/14 06:05:12;;;;;;;19.27;7.80;;;14.40;99.90;;;;;;5091255;28;20497;-59
2023/05/14 06:07:37;;;;;;;20.00;7.45;;;14.40;99.90;;;;;;5091418;28;20040;-59
2023/05/14 06:10:04;;;;;;;12.50;5.95;;;14.70;99.90;;;;;;5091472;28;20024;-58
2023/05/14 06:12:29;;;;;;;21.52;5.50;;;14.80;99.90;;;;;;5091557;28;20036;-58
2023/05/14 06:14:56;;;;;;;27.75;6.70;;;15.00;99.90;;;;;;5091174;28;20055;-59
2023/05/14 06:17:23;;;;;;;15.40;5.38;;;15.10;99.90;;;;;;5094925;28;20036;-59
2023/05/14 06:19:50;;;;;;;19.25;6.25;;;15.20;99.90;;;;;;5095150;28;20537;-59
2023/05/14 06:22:15;;;;;;;19.42;6.65;;;15.20;99.90;;;;;;5095135;28;20051;-59
2023/05/14 06:24:41;;;;;;;14.55;5.90;;;15.40;99.90;;;;;;5095258;28;20398;-59
2023/05/14 06:27:06;;;;;;;12.45;5.55;;;15.50;99.90;;;;;;5095367;28;20577;-59
2023/05/14 06:29:32;;;;;;;12.50;4.85;;;15.60;99.90;;;;;;5095868;28;20072;-59
2023/05/14 06:32:02;;;;;;;13.40;5.47;;;15.70;99.90;;;;;;5095148;28;20038;-59
2023/05/14 06:34:28;;;;;;;13.50;4.90;;;15.70;99.90;;;;;;5095559;28;20119;-59
2023/05/14 06:36:54;;;;;;;14.57;4.88;;;15.70;99.90;;;;;;5091852;28;20047;-60
2023/05/14 06:39:20;;;;;;;17.17;5.20;;;15.80;99.90;;;;;;5082495;28;20028;-59
2023/05/14 06:41:45;;;;;;;15.55;5.53;;;16.00;99.90;;;;;;5074702;28;20043;-60
2023/05/14 06:44:11;;;;;;;15.13;4.90;;;16.00;99.90;;;;;;5074529;28;20075;-60
2023/05/14 06:46:37;;;;;;;11.43;4.80;;;16.00;99.90;;;;;;5074784;28;20128;-60
2023/05/14 06:49:02;;;;;;;15.68;6.05;;;16.10;99.90;;;;;;5073399;28;20032;-59
2023/05/14 06:51:28;;;;;;;15.65;4.60;;;16.10;99.90;;;;;;5074723;28;20041;-60
2023/05/14 06:53:54;;;;;;;13.07;4.88;;;16.10;99.90;;;;;;5074349;28;20074;-59
2023/05/14 06:56:21;;;;;;;17.48;5.38;;;16.20;99.90;;;;;;5074800;28;20037;-59
2023/05/14 06:58:47;;;;;;;13.48;5.07;;;16.10;99.90;;;;;;5074568;28;20036;-60
2023/05/14 07:01:12;;;;;;;13.40;5.88;;;16.10;99.90;;;;;;5073240;28;20040;-60
2023/05/14 07:03:38;;;;;;;14.05;5.80;;;16.00;99.90;;;;;;5080504;28;20061;-60
2023/05/14 07:06:05;;;;;;;13.15;5.82;;;16.00;99.90;;;;;;5094117;28;20036;-60
2023/05/14 07:08:31;;;;;;;17.15;6.25;;;16.00;99.90;;;;;;5094744;28;20105;-60
2023/05/14 07:10:57;;;;;;;13.93;5.80;;;16.00;99.90;;;;;;5094520;28;20036;-60
2023/05/14 07:13:23;;;;;;;12.18;5.25;;;16.10;99.90;;;;;;5094668;28;20032;-60
2023/05/14 07:15:50;;;;;;;9.35;5.47;;;16.20;99.90;;;;;;5094725;28;20494;-59
2023/05/14 07:18:15;;;;;;;14.45;5.65;;;16.30;99.90;;;;;;5094672;28;20047;-60
2023/05/14 07:20:41;;;;;;;14.25;5.65;;;16.50;99.90;;;;;;5093257;28;20059;-60
2023/05/14 07:23:06;;;;;;;15.30;5.55;;;16.70;99.90;;;;;;5094345;28;20043;-59
2023/05/14 07:25:32;;;;;;;16.70;5.95;;;16.80;99.90;;;;;;5084821;28;20048;-60
2023/05/14 07:27:58;;;;;;;15.82;5.97;;;16.90;99.90;;;;;;5075269;28;20379;-60
2023/05/14 07:30:23;;;;;;;9.77;5.43;;;17.00;99.90;;;;;;5083888;28;20044;-60
2023/05/14 07:32:49;;;;;;;12.43;6.40;;;17.00;99.90;;;;;;5094193;28;20382;-60
2023/05/14 07:35:15;;;;;;;10.23;5.45;;;17.00;99.90;;;;;;5094325;28;20351;-60
2023/05/14 07:37:41;;;;;;;10.60;5.25;;;17.20;99.90;;;;;;5092833;28;20028;-60
2023/05/14 07:40:08;;;;;;;12.63;6.38;;;17.30;99.90;;;;;;5094078;28;20044;-60
2023/05/14 07:42:33;;;;;;;8.13;5.43;;;17.40;99.90;;;;;;5094099;28;20064;-60
2023/05/14 07:44:59;;;;;;;13.25;5.38;;;17.60;99.90;;;;;;5094090;28;20467;-60
2023/05/14 07:47:25;;;;;;;16.58;6.00;;;17.90;99.90;;;;;;5093785;28;20509;-60
2023/05/14 07:49:55;;;;;;;10.65;4.78;;;18.00;99.90;;;;;;5094235;28;20394;-60
2023/05/14 07:52:21;;;;;;;8.52;4.72;;;18.30;99.90;;;;;;5094240;28;20044;-60
2023/05/14 07:54:46;;;;;;;10.27;5.03;;;18.30;99.90;;;;;;5092668;28;20040;-60
2023/05/14 07:57:12;;;;;;;10.77;4.75;;;18.60;99.90;;;;;;5093779;28;20089;-60
2023/05/14 07:59:38;;;;;;;8.88;4.13;;;18.70;99.90;;;;;;5092506;28;20040;-60
2023/05/14 08:02:03;;;;;;;15.23;5.45;;;18.60;99.90;;;;;;5085711;28;20166;-60
2023/05/14 08:04:29;;;;;;;15.88;5.25;;;18.70;99.90;;;;;;5087042;28;20116;-60
2023/05/14 08:06:57;;;;;;;11.40;4.60;;;18.60;99.90;;;;;;5092194;28;20040;-60
2023/05/14 08:09:23;;;;;;;13.32;4.40;;;18.20;99.90;;;;;;5093213;28;20232;-60
2023/05/14 08:11:48;;;;;;;12.18;4.57;;;18.30;99.90;;;;;;5092832;28;20444;-60
2023/05/14 08:14:14;;;;;;;9.52;4.60;;;18.10;99.90;;;;;;5093611;28;20107;-60
2023/05/14 08:16:39;;;;;;;10.43;4.60;;;18.30;99.90;;;;;;5093226;28;20077;-60
2023/05/14 08:19:05;;;;;;;11.60;4.70;;;18.40;99.90;;;;;;5093526;28;20071;-60
2023/05/14 08:21:31;;;;;;;12.77;5.78;;;18.90;99.90;;;;;;5093357;28;20379;-60
2023/05/14 08:23:57;;;;;;;11.88;4.00;;;18.90;99.90;;;;;;5079049;28;20129;-60
2023/05/14 08:26:23;;;;;;;14.77;4.80;;;19.00;99.90;;;;;;5093058;28;20079;-60
2023/05/14 08:28:48;;;;;;;10.85;4.72;;;19.20;99.90;;;;;;5092716;28;20036;-61
2023/05/14 08:31:14;;;;;;;13.57;4.53;;;19.40;99.90;;;;;;5092947;28;20086;-60
2023/05/14 08:33:40;;;;;;;11.20;4.68;;;19.70;99.90;;;;;;5092817;28;20038;-60
2023/05/14 08:36:06;;;;;;;16.25;5.45;;;19.90;99.90;;;;;;5092937;28;20036;-61
2023/05/14 08:38:32;;;;;;;13.75;4.53;;;20.00;99.90;;;;;;5091690;28;20039;-61
2023/05/14 08:40:59;;;;;;;12.77;5.25;;;20.00;99.90;;;;;;5092984;28;20036;-60
2023/05/14 08:43:44;;;;;;;10.80;3.90;;;20.10;99.90;;;;;;5092516;28;20044;-60
2023/05/14 08:46:14;;;;;;;10.93;4.22;;;20.20;99.90;;;;;;5085866;28;20131;-60
2023/05/14 08:48:41;;;;;;;8.82;3.83;;;20.10;99.90;;;;;;5092419;28;20110;-60
2023/05/14 08:51:08;;;;;;;11.93;4.90;;;20.30;99.90;;;;;;5092570;28;20474;-61
2023/05/14 08:53:33;;;;;;;10.10;5.32;;;20.30;99.90;;;;;;5092366;28;20036;-61
2023/05/14 08:56:01;;;;;;;8.98;4.68;;;20.40;99.90;;;;;;5091323;28;20051;-61
2023/05/14 08:58:27;;;;;;;11.05;5.20;;;20.30;99.90;;;;;;5092336;28;20423;-61
2023/05/14 09:00:53;;;;;;;11.52;4.35;;;20.30;99.90;;;;;;5092190;28;20500;-60
2023/05/14 09:03:20;;;;;;;9.50;4.57;;;20.50;99.90;;;;;;5078326;28;20389;-61
2023/05/14 09:05:50;;;;;;;11.85;4.47;;;20.60;99.90;;;;;;5092012;28;20111;-61
2023/05/14 09:08:16;;;;;;;9.00;4.30;;;20.80;99.90;;;;;;5092000;28;20028;-61
2023/05/14 09:10:41;;;;;;;12.52;5.97;;;21.10;99.90;;;;;;5091942;28;20085;-61
2023/05/14 09:13:08;;;;;;;13.40;5.47;;;21.00;99.90;;;;;;5092428;28;20119;-61
2023/05/14 09:15:37;;;;;;;12.00;4.85;;;21.10;99.90;;;;;;5092218;28;20075;-61
2023/05/14 09:18:06;;;;;;;11.00;5.53;;;21.30;99.90;;;;;;5092267;28;20040;-61
2023/05/14 09:20:32;;;;;;;10.90;4.88;;;21.30;99.90;;;;;;5090919;28;20493;-61
2023/05/14 09:22:58;;;;;;;16.33;4.43;;;21.20;99.90;;;;;;5092424;28;20036;-61
2023/05/14 09:25:31;;;;;;;7.93;4.32;;;21.10;99.90;;;;;;5092007;28;20048;-61
2023/05/14 09:27:57;;;;;;;8.77;4.45;;;21.20;99.90;;;;;;5092214;28;20039;-61
2023/05/14 09:30:25;;;;;;;12.82;4.97;;;21.20;99.90;;;;;;5092226;28;20073;-61
2023/05/14 09:32:53;;;;;;;13.15;5.38;;;21.20;99.90;;;;;;5090630;28;20150;-61
2023/05/14 09:35:21;;;;;;;16.27;5.20;;;21.50;99.90;;;;;;5090933;28;20389;-61
2023/05/14 09:37:49;;;;;;;9.55;5.00;;;21.40;99.90;;;;;;5092028;28;20115;-61
2023/05/14 09:40:17;;;;;;;9.25;4.35;;;21.50;99.90;;;;;;5092196;28;20050;-60
2023/05/14 09:42:43;;;;;;;11.63;4.93;;;21.60;99.90;;;;;;5092018;28;20039;-61
2023/05/14 09:45:09;;;;;;;6.85;4.10;;;21.40;99.90;;;;;;5091687;28;20063;-61
2023/05/14 09:47:36;;;;;;;9.32;4.13;;;21.90;99.90;;;;;;5091673;28;20385;-67
2023/05/14 09:50:03;;;;;;;13.35;5.22;;;22.70;99.90;;;;;;5093039;28;20039;-66
2023/05/14 09:52:29;;;;;;;7.43;3.17;;;24.10;99.90;;;;;;5095315;28;20040;-66
2023/05/14 09:54:55;;;;;;;9.45;4.15;;;25.40;99.90;;;;;;5095317;28;20054;-66
2023/05/14 09:57:21;;;;;;;11.60;4.32;;;25.70;99.90;;;;;;5094151;28;20107;-65
2023/05/14 09:59:47;;;;;;;10.43;4.38;;;25.60;99.90;;;;;;5094163;28;20040;-65
2023/05/14 10:02:22;;;;;;;10.23;4.82;;;26.30;99.90;;;;;;5086142;28;20125;-65
2023/05/14 10:04:53;;;;;;;6.65;4.10;;;26.60;99.90;;;;;;5091979;28;20048;-65
2023/05/14 10:07:27;;;;;;;9.75;3.88;;;26.80;99.90;;;;;;5094357;28;20032;-66
2023/05/14 10:09:58;;;;;;;47.25;6.78;;;27.40;99.90;;;;;;5093871;28;20040;-66
2023/05/14 10:12:28;;;;;;;8.38;4.90;;;26.80;99.90;;;;;;5095002;28;20541;-65
2023/05/14 10:14:56;;;;;;;9.63;4.25;;;26.20;99.90;;;;;;5094952;28;20421;-65
2023/05/14 10:17:26;;;;;;;9.20;4.00;;;25.80;99.90;;;;;;5095217;28;20032;-66
2023/05/14 10:19:55;;;;;;;25.80;5.43;;;25.80;99.90;;;;;;5095179;28;20043;-65
2023/05/14 10:22:29;;;;;;;9.10;4.10;;;26.40;99.90;;;;;;5095040;28;20036;-66
2023/05/14 10:24:55;;;;;;;12.20;4.28;;;26.20;99.90;;;;;;5094714;28;20375;-65
2023/05/14 10:27:22;;;;;;;18.40;4.68;;;26.20;99.90;;;;;;5094852;28;20032;-65
2023/05/14 10:29:53;;;;;;;11.52;4.70;;;26.00;99.90;;;;;;5094817;28;20066;-66
2023/05/14 10:32:24;;;;;;;7.45;4.38;;;26.10;99.90;;;;;;5097367;28;20033;-65
2023/05/14 10:34:50;;;;;;;7.38;4.20;;;25.70;99.90;;;;;;5095691;28;20043;-66
2023/05/14 10:37:18;;;;;;;10.60;4.68;;;25.90;99.90;;;;;;5094656;28;20078;-65
2023/05/14 10:39:59;;;;;;;8.50;5.00;;;26.00;99.90;;;;;;5099775;28;20042;-66
2023/05/14 10:42:34;;;;;;;9.02;4.75;;;25.80;99.90;;;;;;5094989;28;20339;-65
2023/05/14 10:45:07;;;;;;;8.90;3.72;;;26.60;99.90;;;;;;5094462;28;20100;-65
2023/05/14 10:47:35;;;;;;;8.50;4.47;;;26.80;99.90;;;;;;5094654;28;20254;-66
2023/05/14 10:50:03;;;;;;;7.32;4.57;;;27.40;99.90;;;;;;5094603;28;20480;-66
2023/05/14 10:52:30;;;;;;;6.78;3.90;;;27.60;99.90;;;;;;5092646;28;20105;-66
2023/05/14 10:54:57;;;;;;;9.65;4.25;;;28.10;99.90;;;;;;5091521;28;20068;-66
2023/05/14 10:57:28;;;;;;;7.65;3.53;;;27.80;99.90;;;;;;5082623;28;20119;-61
2023/05/14 10:59:58;;;;;;;8.27;4.43;;;28.10;99.90;;;;;;5074338;28;20108;-61
2023/05/14 11:02:25;;;;;;;7.82;4.80;;;27.90;99.90;;;;;;5073106;28;20037;-61
2023/05/14 11:04:57;;;;;;;7.68;4.22;;;27.90;99.90;;;;;;5090794;28;20122;-61
2023/05/14 11:07:31;;;;;;;11.13;4.50;;;28.30;99.90;;;;;;5094631;28;20048;-61
2023/05/14 11:10:13;;;;;;;8.63;4.63;;;28.10;99.90;;;;;;5094278;28;20050;-61
2023/05/14 11:12:40;;;;;;;6.18;3.67;;;28.40;99.90;;;;;;5094383;28;20039;-61
2023/05/14 11:15:09;;;;;;;9.48;4.63;;;28.60;99.50;;;;;;5094014;28;20024;-61
2023/05/14 11:17:35;;;;;;;;;;;29.00;99.00;;;;;;5094627;28;20116;-61
2023/05/14 11:20:02;;;;;;;8.15;3.63;;;29.60;99.00;;;;;;5082584;28;19917;-61
2023/05/14 11:22:27;;;;;;;7.60;3.63;;;29.70;98.10;;;;;;5093831;28;20063;-62
2023/05/14 11:24:53;;;;;;;8.73;4.25;;;30.00;98.20;;;;;;5094018;28;20474;-61
2023/05/14 11:27:21;;;;;;;6.78;3.63;;;30.00;97.60;;;;;;5093920;28;20048;-61
2023/05/14 11:29:47;;;;;;;4.40;3.42;;;29.40;97.90;;;;;;5093984;28;20505;-62
2023/05/14 11:32:14;;;;;;;6.95;3.53;;;29.00;96.80;;;;;;5093818;28;20040;-61
2023/05/14 11:34:43;;;;;;;5.75;3.58;;;29.00;96.70;;;;;;5090573;28;20040;-61
2023/05/14 11:37:11;;;;;;;5.57;3.88;;;28.50;97.40;;;;;;5077481;28;20051;-62
2023/05/14 11:39:37;;;;;;;;;;;27.80;96.70;;;;;;5074713;28;20041;-61
2023/05/14 11:42:11;;;;;;;8.65;4.28;;;27.90;95.50;;;;;;5073049;28;19926;-62
2023/05/14 11:44:38;;;;;;;5.70;3.20;;;27.70;95.00;;;;;;5074277;28;20055;-61
2023/05/14 11:47:04;;;;;;;6.85;4.07;;;28.00;96.70;;;;;;5073097;28;20041;-61
2023/05/14 11:49:31;;;;;;;6.05;3.85;;;28.30;96.50;;;;;;5076280;28;20047;-61
2023/05/14 11:52:01;;;;;;;8.63;3.50;;;28.70;97.20;;;;;;5075572;28;20120;-61
2023/05/14 11:54:28;;;;;;;6.72;4.45;;;28.70;97.20;;;;;;5074358;28;20029;-61
2023/05/14 11:56:55;;;;;;;9.43;3.90;;;28.80;96.40;;;;;;5074700;28;20049;-61
2023/05/14 11:59:24;;;;;;;11.35;3.85;;;28.70;96.90;;;;;;5076096;28;20041;-61
2023/05/14 12:01:51;;;;;;;6.43;3.88;;;28.60;95.80;;;;;;5072883;28;20094;-62
2023/05/14 12:04:21;;;;;;;8.50;4.80;;;28.50;96.20;;;;;;5085233;28;20089;-62
2023/05/14 12:06:50;;;;;;;7.40;4.45;;;28.70;95.50;;;;;;5092908;28;20424;-61
2023/05/14 12:09:19;;;;;;;7.75;4.65;;;29.30;95.30;;;;;;5092860;28;20109;-62
2023/05/14 12:11:46;;;;;;;6.95;4.00;;;29.00;95.00;;;;;;5092670;28;20124;-62
2023/05/14 12:14:22;;;;;;;6.38;3.85;;;28.80;96.70;;;;;;5093035;28;20097;-62
2023/05/14 12:16:50;;;;;;;7.18;3.85;;;28.50;96.50;;;;;;5092731;28;20119;-61
2023/05/14 12:19:20;;;;;;;6.03;3.75;;;28.40;96.90;;;;;;5092836;28;20040;-61
2023/05/14 12:21:49;;;;;;;8.10;4.18;;;28.30;96.30;;;;;;5092297;28;20489;-62
2023/05/14 12:24:17;;;;;;;6.43;4.32;;;28.20;96.40;;;;;;5092590;28;20482;-61
2023/05/14 12:26:47;;;;;;;7.88;4.05;;;27.70;97.40;;;;;;5092247;28;20118;-61
2023/05/14 12:29:14;;;;;;;8.02;3.70;;;27.70;95.60;;;;;;5092791;28;20044;-61
2023/05/14 12:31:47;;;;;;;8.77;4.78;;;27.80;96.30;;;;;;5092398;28;20029;-62
2023/05/14 12:34:13;;;;;;;7.00;4.07;;;27.50;96.90;;;;;;5092337;28;20072;-61
2023/05/14 12:36:39;;;;;;;6.85;3.10;;;27.40;97.00;;;;;;5092909;28;20044;-62
2023/05/14 12:39:05;;;;;;;5.63;4.05;;;27.60;97.40;;;;;;5092387;28;20375;-61